sensor_id;sensor_type;location;lat;lon;timestamp;pressure;altitude;pressure_sealevel;temperature;humidity
13486;BME280;6815;59.336;17.998;2022-08-18T00:01:39;75464.56;;;-145.37;74.21
13486;BME280;6815;59.336;17.998;2022-08-18T00:04:07;75454.50;;;-145.37;73.64
13486;BME280;6815;59.336;17.998;2022-08-18T00:06:33;75458.53;;;-145.37;73.26
13486;BME280;6815;59.336;17.998;2022-08-18T00:09:02;75456.50;;;-145.37;72.79
13486;BME280;6815;59.336;17.998;2022-08-18T00:11:29;75450.50;;;-145.37;71.43
13486;BME280;6815;59.336;17.998;2022-08-18T00:13:56;75448.47;;;-145.37;70.68
13486;BME280;6815;59.336;17.998;2022-08-18T00:16:22;75460.53;;;-145.37;70.85
13486;BME280;6815;59.336;17.998;2022-08-18T00:18:48;75470.59;;;-145.37;70.78
13486;BME280;6815;59.336;17.998;2022-08-18T00:21:14;75476.63;;;-145.37;70.06
13486;BME280;6815;59.336;17.998;2022-08-18T00:23:39;75482.66;;;-145.37;70.38
13486;BME280;6815;59.336;17.998;2022-08-18T00:26:05;75472.59;;;-145.37;69.91
13486;BME280;6815;59.336;17.998;2022-08-18T00:28:30;75476.63;;;-145.37;68.80
13486;BME280;6815;59.336;17.998;2022-08-18T00:30:55;75468.56;;;-145.37;68.00
13486;BME280;6815;59.336;17.998;2022-08-18T00:33:21;75494.72;;;-145.37;68.64
13486;BME280;6815;59.336;17.998;2022-08-18T00:35:47;75526.88;;;-145.37;69.87
13486;BME280;6815;59.336;17.998;2022-08-18T00:38:13;75538.94;;;-145.37;70.46
13486;BME280;6815;59.336;17.998;2022-08-18T00:40:47;75492.69;;;-145.37;69.25
13486;BME280;6815;59.336;17.998;2022-08-18T00:43:31;75498.72;;;-145.37;69.43
13486;BME280;6815;59.336;17.998;2022-08-18T00:45:56;75480.63;;;-145.37;68.85
13486;BME280;6815;59.336;17.998;2022-08-18T00:48:24;75528.88;;;-145.37;69.28
13486;BME280;6815;59.336;17.998;2022-08-18T00:50:58;75522.84;;;-145.37;69.64
13486;BME280;6815;59.336;17.998;2022-08-18T00:55:55;75548.97;;;-145.37;71.63
13486;BME280;6815;59.336;17.998;2022-08-18T00:58:35;75524.84;;;-145.37;70.69
13486;BME280;6815;59.336;17.998;2022-08-18T01:01:05;75553.00;;;-145.37;71.51
13486;BME280;6815;59.336;17.998;2022-08-18T01:03:32;75548.97;;;-145.37;71.48
13486;BME280;6815;59.336;17.998;2022-08-18T01:06:14;75548.97;;;-145.37;71.58
13486;BME280;6815;59.336;17.998;2022-08-18T01:08:41;75561.03;;;-145.37;71.99
13486;BME280;6815;59.336;17.998;2022-08-18T01:11:07;75593.19;;;-145.37;73.72
13486;BME280;6815;59.336;17.998;2022-08-18T01:13:34;75567.06;;;-145.37;73.47
13486;BME280;6815;59.336;17.998;2022-08-18T01:16:03;75563.03;;;-145.37;73.39
13486;BME280;6815;59.336;17.998;2022-08-18T01:18:50;75591.19;;;-145.37;74.81
13486;BME280;6815;59.336;17.998;2022-08-18T01:21:38;75577.09;;;-145.37;74.34
13486;BME280;6815;59.336;17.998;2022-08-18T01:24:15;75573.09;;;-145.37;73.89
13486;BME280;6815;59.336;17.998;2022-08-18T01:26:42;75589.16;;;-145.37;74.61
13486;BME280;6815;59.336;17.998;2022-08-18T01:29:14;75605.25;;;-145.37;75.33
13486;BME280;6815;59.336;17.998;2022-08-18T01:31:44;75603.25;;;-145.37;75.97
13486;BME280;6815;59.336;17.998;2022-08-18T01:34:11;75585.16;;;-145.37;75.24
13486;BME280;6815;59.336;17.998;2022-08-18T01:36:38;75589.16;;;-145.37;75.55
13486;BME280;6815;59.336;17.998;2022-08-18T01:39:08;75595.19;;;-145.37;75.88
13486;BME280;6815;59.336;17.998;2022-08-18T01:41:34;75583.16;;;-145.37;75.15
13486;BME280;6815;59.336;17.998;2022-08-18T01:44:00;75599.22;;;-145.37;75.85
13486;BME280;6815;59.336;17.998;2022-08-18T01:46:29;75611.28;;;-145.37;76.55
13486;BME280;6815;59.336;17.998;2022-08-18T01:48:56;75615.31;;;-145.37;76.71
13486;BME280;6815;59.336;17.998;2022-08-18T01:51:27;75611.28;;;-145.37;76.66
13486;BME280;6815;59.336;17.998;2022-08-18T01:53:54;75617.31;;;-145.37;76.95
13486;BME280;6815;59.336;17.998;2022-08-18T01:56:20;75611.28;;;-145.37;76.87
13486;BME280;6815;59.336;17.998;2022-08-18T01:58:45;75601.22;;;-145.37;76.96
13486;BME280;6815;59.336;17.998;2022-08-18T02:01:13;75599.22;;;-145.37;76.45
13486;BME280;6815;59.336;17.998;2022-08-18T02:03:42;75597.22;;;-145.37;76.29
13486;BME280;6815;59.336;17.998;2022-08-18T02:06:12;75619.31;;;-145.37;77.17
13486;BME280;6815;59.336;17.998;2022-08-18T02:08:38;75603.25;;;-145.37;76.55
13486;BME280;6815;59.336;17.998;2022-08-18T02:11:05;75605.25;;;-145.37;76.21
13486;BME280;6815;59.336;17.998;2022-08-18T02:13:32;75615.31;;;-145.37;76.40
13486;BME280;6815;59.336;17.998;2022-08-18T02:15:58;75609.28;;;-145.37;76.26
13486;BME280;6815;59.336;17.998;2022-08-18T02:18:29;75627.38;;;-145.37;76.94
13486;BME280;6815;59.336;17.998;2022-08-18T02:20:56;75623.34;;;-145.37;76.80
13486;BME280;6815;59.336;17.998;2022-08-18T02:23:22;75643.44;;;-145.37;77.26
13486;BME280;6815;59.336;17.998;2022-08-18T02:25:48;75647.47;;;-145.37;77.84
13486;BME280;6815;59.336;17.998;2022-08-18T02:28:14;75677.63;;;-145.37;79.28
13486;BME280;6815;59.336;17.998;2022-08-18T02:30:40;75677.63;;;-145.37;79.36
13486;BME280;6815;59.336;17.998;2022-08-18T02:33:07;75649.47;;;-145.37;78.31
13486;BME280;6815;59.336;17.998;2022-08-18T02:35:33;75633.38;;;-145.37;76.95
13486;BME280;6815;59.336;17.998;2022-08-18T02:38:03;75641.44;;;-145.37;77.31
13486;BME280;6815;59.336;17.998;2022-08-18T02:40:28;75625.34;;;-145.37;76.92
13486;BME280;6815;59.336;17.998;2022-08-18T02:42:54;75633.38;;;-145.37;77.18
13486;BME280;6815;59.336;17.998;2022-08-18T02:45:21;75609.28;;;-145.37;76.60
13486;BME280;6815;59.336;17.998;2022-08-18T02:47:52;75653.50;;;-145.37;78.32
13486;BME280;6815;59.336;17.998;2022-08-18T02:50:18;75645.44;;;-145.37;77.88
13486;BME280;6815;59.336;17.998;2022-08-18T02:52:43;75641.44;;;-145.37;77.13
13486;BME280;6815;59.336;17.998;2022-08-18T02:55:09;75669.56;;;-145.37;78.34
13486;BME280;6815;59.336;17.998;2022-08-18T02:57:34;75639.41;;;-145.37;76.61
13486;BME280;6815;59.336;17.998;2022-08-18T03:00:00;75629.38;;;-145.37;75.79
13486;BME280;6815;59.336;17.998;2022-08-18T03:02:26;75627.38;;;-145.37;75.21
13486;BME280;6815;59.336;17.998;2022-08-18T03:04:51;75685.66;;;-145.37;77.74
13486;BME280;6815;59.336;17.998;2022-08-18T03:07:17;75699.72;;;-145.37;79.18
13486;BME280;6815;59.336;17.998;2022-08-18T03:09:42;75697.72;;;-145.37;79.07
13486;BME280;6815;59.336;17.998;2022-08-18T03:12:08;75667.56;;;-145.37;77.49
13486;BME280;6815;59.336;17.998;2022-08-18T03:14:35;75665.56;;;-145.37;77.13
13486;BME280;6815;59.336;17.998;2022-08-18T03:17:03;75671.59;;;-145.37;77.48
13486;BME280;6815;59.336;17.998;2022-08-18T03:19:30;75689.66;;;-145.37;77.74
13486;BME280;6815;59.336;17.998;2022-08-18T03:21:57;75687.66;;;-145.37;78.76
13486;BME280;6815;59.336;17.998;2022-08-18T03:24:24;75707.75;;;-145.37;79.71
13486;BME280;6815;59.336;17.998;2022-08-18T03:26:51;75693.69;;;-145.37;79.78
13486;BME280;6815;59.336;17.998;2022-08-18T03:29:16;75699.72;;;-145.37;80.20
13486;BME280;6815;59.336;17.998;2022-08-18T03:31:43;75695.69;;;-145.37;79.73
13486;BME280;6815;59.336;17.998;2022-08-18T03:34:08;75691.69;;;-145.37;79.37
13486;BME280;6815;59.336;17.998;2022-08-18T03:36:36;75729.88;;;-145.37;80.32
13486;BME280;6815;59.336;17.998;2022-08-18T03:39:10;75709.78;;;-145.37;79.90
13486;BME280;6815;59.336;17.998;2022-08-18T03:41:39;75727.88;;;-145.37;80.20
13486;BME280;6815;59.336;17.998;2022-08-18T03:44:06;75693.69;;;-145.37;79.17
13486;BME280;6815;59.336;17.998;2022-08-18T03:46:32;75701.72;;;-145.37;79.35
13486;BME280;6815;59.336;17.998;2022-08-18T03:48:58;75707.75;;;-145.37;79.34
13486;BME280;6815;59.336;17.998;2022-08-18T03:51:28;75701.72;;;-145.37;79.31
13486;BME280;6815;59.336;17.998;2022-08-18T03:53:58;75713.78;;;-145.37;78.96
13486;BME280;6815;59.336;17.998;2022-08-18T03:56:30;75701.72;;;-145.37;77.89
13486;BME280;6815;59.336;17.998;2022-08-18T03:59:00;75699.72;;;-145.37;77.85
13486;BME280;6815;59.336;17.998;2022-08-18T04:01:30;75711.78;;;-145.37;78.20
13486;BME280;6815;59.336;17.998;2022-08-18T04:04:00;75693.69;;;-145.37;77.94
13486;BME280;6815;59.336;17.998;2022-08-18T04:06:40;75703.75;;;-145.37;78.76
13486;BME280;6815;59.336;17.998;2022-08-18T04:09:10;75723.84;;;-145.37;80.15
13486;BME280;6815;59.336;17.998;2022-08-18T04:11:36;75727.88;;;-145.37;80.93
13486;BME280;6815;59.336;17.998;2022-08-18T04:14:03;75707.75;;;-145.37;79.98
13486;BME280;6815;59.336;17.998;2022-08-18T04:16:30;75719.81;;;-145.37;80.09
13486;BME280;6815;59.336;17.998;2022-08-18T04:19:03;75713.78;;;-145.37;79.90
13486;BME280;6815;59.336;17.998;2022-08-18T04:21:36;75717.81;;;-145.37;79.76
13486;BME280;6815;59.336;17.998;2022-08-18T04:24:04;75723.84;;;-145.37;79.81
13486;BME280;6815;59.336;17.998;2022-08-18T04:26:35;75699.72;;;-145.37;78.70
13486;BME280;6815;59.336;17.998;2022-08-18T04:29:02;75713.78;;;-145.37;78.71
13486;BME280;6815;59.336;17.998;2022-08-18T04:31:28;75713.78;;;-145.37;78.80
13486;BME280;6815;59.336;17.998;2022-08-18T04:33:55;75711.78;;;-145.37;78.98
13486;BME280;6815;59.336;17.998;2022-08-18T04:36:21;75697.72;;;-145.37;78.21
13486;BME280;6815;59.336;17.998;2022-08-18T04:38:46;75729.88;;;-145.37;79.32
13486;BME280;6815;59.336;17.998;2022-08-18T04:41:12;75707.75;;;-145.37;78.46
13486;BME280;6815;59.336;17.998;2022-08-18T04:43:39;75689.66;;;-145.37;75.93
13486;BME280;6815;59.336;17.998;2022-08-18T04:46:04;75689.66;;;-145.37;74.63
13486;BME280;6815;59.336;17.998;2022-08-18T04:48:36;75709.78;;;-145.37;71.35
13486;BME280;6815;59.336;17.998;2022-08-18T04:51:11;75671.59;;;-145.37;69.92
13486;BME280;6815;59.336;17.998;2022-08-18T04:53:38;75665.56;;;-145.37;67.79
13486;BME280;6815;59.336;17.998;2022-08-18T04:58:43;75661.53;;;-145.37;66.57
13486;BME280;6815;59.336;17.998;2022-08-18T05:01:09;75671.59;;;-145.37;65.79
13486;BME280;6815;59.336;17.998;2022-08-18T05:03:35;75683.63;;;-145.37;65.24
13486;BME280;6815;59.336;17.998;2022-08-18T05:06:03;75677.63;;;-145.37;64.96
13486;BME280;6815;59.336;17.998;2022-08-18T05:08:30;75661.53;;;-145.37;64.56
13486;BME280;6815;59.336;17.998;2022-08-18T05:10:56;75645.44;;;-145.37;63.44
13486;BME280;6815;59.336;17.998;2022-08-18T05:13:22;75633.38;;;-145.37;62.67
13486;BME280;6815;59.336;17.998;2022-08-18T05:15:56;75635.41;;;-145.37;62.90
13486;BME280;6815;59.336;17.998;2022-08-18T05:18:23;75635.41;;;-145.37;63.17
13486;BME280;6815;59.336;17.998;2022-08-18T05:20:54;75633.38;;;-145.37;61.85
13486;BME280;6815;59.336;17.998;2022-08-18T05:23:20;75619.31;;;-145.37;61.67
13486;BME280;6815;59.336;17.998;2022-08-18T05:25:46;75607.25;;;-145.37;61.61
13486;BME280;6815;59.336;17.998;2022-08-18T05:28:12;75615.31;;;-145.37;62.19
13486;BME280;6815;59.336;17.998;2022-08-18T05:30:39;75617.31;;;-145.37;62.37
13486;BME280;6815;59.336;17.998;2022-08-18T05:33:05;75615.31;;;-145.37;62.62
13486;BME280;6815;59.336;17.998;2022-08-18T05:35:47;75603.25;;;-145.37;61.58
13486;BME280;6815;59.336;17.998;2022-08-18T05:38:37;75607.25;;;-145.37;61.81
13486;BME280;6815;59.336;17.998;2022-08-18T05:41:19;75617.31;;;-145.37;61.24
13486;BME280;6815;59.336;17.998;2022-08-18T05:43:47;75583.16;;;-145.37;60.31
13486;BME280;6815;59.336;17.998;2022-08-18T05:46:14;75581.13;;;-145.37;60.06
13486;BME280;6815;59.336;17.998;2022-08-18T05:48:40;75593.19;;;-145.37;59.59
13486;BME280;6815;59.336;17.998;2022-08-18T05:51:27;75603.25;;;-145.37;60.08
13486;BME280;6815;59.336;17.998;2022-08-18T05:53:55;75593.19;;;-145.37;59.97
13486;BME280;6815;59.336;17.998;2022-08-18T05:56:43;75593.19;;;-145.37;60.10
13486;BME280;6815;59.336;17.998;2022-08-18T05:59:24;75587.16;;;-145.37;59.89
13486;BME280;6815;59.336;17.998;2022-08-18T06:01:55;75593.19;;;-145.37;59.99
13486;BME280;6815;59.336;17.998;2022-08-18T06:04:46;75595.19;;;-145.37;60.09
13486;BME280;6815;59.336;17.998;2022-08-18T06:07:17;75605.25;;;-145.37;60.08
13486;BME280;6815;59.336;17.998;2022-08-18T06:09:50;75595.19;;;-145.37;59.85
13486;BME280;6815;59.336;17.998;2022-08-18T06:14:49;75555.00;;;-145.37;59.33
13486;BME280;6815;59.336;17.998;2022-08-18T06:17:38;75536.91;;;-145.37;59.25
13486;BME280;6815;59.336;17.998;2022-08-18T06:20:20;75524.84;;;-145.37;59.06
13486;BME280;6815;59.336;17.998;2022-08-18T06:25:56;75585.16;;;-145.37;60.27
13486;BME280;6815;59.336;17.998;2022-08-18T06:28:22;75591.19;;;-145.37;59.86
13486;BME280;6815;59.336;17.998;2022-08-18T06:31:17;75601.22;;;-145.37;60.86
13486;BME280;6815;59.336;17.998;2022-08-18T06:34:02;75635.41;;;-145.37;60.96
13486;BME280;6815;59.336;17.998;2022-08-18T06:36:42;75625.34;;;-145.37;61.02
13486;BME280;6815;59.336;17.998;2022-08-18T06:39:35;75593.19;;;-145.37;60.67
13486;BME280;6815;59.336;17.998;2022-08-18T06:41:59;75559.03;;;-145.37;59.05
13486;BME280;6815;59.336;17.998;2022-08-18T06:44:32;75516.81;;;-145.37;58.27
13486;BME280;6815;59.336;17.998;2022-08-18T06:52:31;75488.66;;;-145.37;56.64
13486;BME280;6815;59.336;17.998;2022-08-18T06:55:07;75508.78;;;-145.37;56.49
13486;BME280;6815;59.336;17.998;2022-08-18T06:57:40;75514.81;;;-145.37;56.44
13486;BME280;6815;59.336;17.998;2022-08-18T07:03:12;75516.81;;;-145.37;56.42
13486;BME280;6815;59.336;17.998;2022-08-18T07:08:36;75555.00;;;-145.37;56.33
13486;BME280;6815;59.336;17.998;2022-08-18T07:13:54;75579.13;;;-145.37;56.44
13486;BME280;6815;59.336;17.998;2022-08-18T07:16:28;75532.88;;;-145.37;56.27
13486;BME280;6815;59.336;17.998;2022-08-18T07:19:12;75488.66;;;-145.37;55.96
13486;BME280;6815;59.336;17.998;2022-08-18T07:21:40;75472.59;;;-145.37;55.18
13486;BME280;6815;59.336;17.998;2022-08-18T07:26:58;75444.47;;;-145.37;55.10
13486;BME280;6815;59.336;17.998;2022-08-18T07:29:33;75432.41;;;-145.37;54.81
13486;BME280;6815;59.336;17.998;2022-08-18T07:32:16;75424.34;;;-145.37;54.06
13486;BME280;6815;59.336;17.998;2022-08-18T07:34:49;75436.41;;;-145.37;53.74
13486;BME280;6815;59.336;17.998;2022-08-18T07:37:21;75432.41;;;-145.37;53.21
13486;BME280;6815;59.336;17.998;2022-08-18T07:40:19;75432.41;;;-145.37;52.94
13486;BME280;6815;59.336;17.998;2022-08-18T07:43:02;75446.47;;;-145.37;52.30
13486;BME280;6815;59.336;17.998;2022-08-18T07:45:42;75444.47;;;-145.37;52.20
13486;BME280;6815;59.336;17.998;2022-08-18T07:48:18;75426.38;;;-145.37;52.26
13486;BME280;6815;59.336;17.998;2022-08-18T07:56:12;75438.44;;;-145.37;51.12
13486;BME280;6815;59.336;17.998;2022-08-18T07:58:48;75442.44;;;-145.37;51.20
13486;BME280;6815;59.336;17.998;2022-08-18T08:01:42;75424.34;;;-145.37;51.34
13486;BME280;6815;59.336;17.998;2022-08-18T08:06:53;75398.22;;;-145.37;50.82
13486;BME280;6815;59.336;17.998;2022-08-18T08:09:38;75392.19;;;-145.37;50.99
13486;BME280;6815;59.336;17.998;2022-08-18T08:12:43;75402.25;;;-145.37;50.00
13486;BME280;6815;59.336;17.998;2022-08-18T08:23:13;75418.31;;;-145.37;50.30
13486;BME280;6815;59.336;17.998;2022-08-18T08:39:17;75408.28;;;-145.37;49.27
13486;BME280;6815;59.336;17.998;2022-08-18T08:41:48;75388.19;;;-145.37;49.02
13486;BME280;6815;59.336;17.998;2022-08-18T08:44:23;75390.19;;;-145.37;49.46
13486;BME280;6815;59.336;17.998;2022-08-18T08:49:54;75362.06;;;-145.37;48.80
13486;BME280;6815;59.336;17.998;2022-08-18T08:54:52;75382.16;;;-145.37;48.95
13486;BME280;6815;59.336;17.998;2022-08-18T08:57:21;75374.09;;;-145.37;46.85
13486;BME280;6815;59.336;17.998;2022-08-18T08:59:51;75360.03;;;-145.37;46.23
13486;BME280;6815;59.336;17.998;2022-08-18T09:02:26;75372.09;;;-145.37;46.07
13486;BME280;6815;59.336;17.998;2022-08-18T09:10:36;75366.06;;;-145.37;45.50
13486;BME280;6815;59.336;17.998;2022-08-18T09:21:40;75331.91;;;-145.37;45.85
13486;BME280;6815;59.336;17.998;2022-08-18T09:24:23;75317.84;;;-145.37;45.96
13486;BME280;6815;59.336;17.998;2022-08-18T09:37:53;75319.84;;;-145.37;47.95
13486;BME280;6815;59.336;17.998;2022-08-18T09:40:47;75305.78;;;-145.37;47.77
13486;BME280;6815;59.336;17.998;2022-08-18T09:43:37;75291.72;;;-145.37;47.97
13486;BME280;6815;59.336;17.998;2022-08-18T09:46:05;75287.69;;;-145.37;48.20
13486;BME280;6815;59.336;17.998;2022-08-18T09:48:36;75283.66;;;-145.37;48.47
13486;BME280;6815;59.336;17.998;2022-08-18T09:56:16;75259.56;;;-145.37;48.49
13486;BME280;6815;59.336;17.998;2022-08-18T09:59:01;75279.66;;;-145.37;48.61
13486;BME280;6815;59.336;17.998;2022-08-18T10:06:42;75225.38;;;-145.37;48.17
13486;BME280;6815;59.336;17.998;2022-08-18T10:11:54;75259.56;;;-145.37;48.23
13486;BME280;6815;59.336;17.998;2022-08-18T10:18:17;75231.41;;;-145.37;48.16
13486;BME280;6815;59.336;17.998;2022-08-18T10:22:56;75235.44;;;-145.37;47.46
13486;BME280;6815;59.336;17.998;2022-08-18T10:25:41;75227.41;;;-145.37;47.81
13486;BME280;6815;59.336;17.998;2022-08-18T10:28:50;75223.38;;;-145.37;47.75
13486;BME280;6815;59.336;17.998;2022-08-18T10:31:02;75211.31;;;-145.37;47.93
13486;BME280;6815;59.336;17.998;2022-08-18T10:34:03;75219.34;;;-145.37;47.49
13486;BME280;6815;59.336;17.998;2022-08-18T10:36:51;75223.38;;;-145.37;47.64
13486;BME280;6815;59.336;17.998;2022-08-18T10:39:25;75217.34;;;-145.37;47.40
13486;BME280;6815;59.336;17.998;2022-08-18T10:41:57;75221.38;;;-145.37;47.86
13486;BME280;6815;59.336;17.998;2022-08-18T10:44:24;75209.31;;;-145.37;47.88
13486;BME280;6815;59.336;17.998;2022-08-18T10:46:51;75193.22;;;-145.37;47.76
13486;BME280;6815;59.336;17.998;2022-08-18T10:49:23;75175.13;;;-145.37;47.37
13486;BME280;6815;59.336;17.998;2022-08-18T10:54:53;75165.09;;;-145.37;47.29
13486;BME280;6815;59.336;17.998;2022-08-18T11:00:19;75179.16;;;-145.37;47.39
13486;BME280;6815;59.336;17.998;2022-08-18T11:05:30;75165.09;;;-145.37;47.11
13486;BME280;6815;59.336;17.998;2022-08-18T11:08:17;75173.13;;;-145.37;47.09
13486;BME280;6815;59.336;17.998;2022-08-18T11:10:47;75169.09;;;-145.37;47.11
13486;BME280;6815;59.336;17.998;2022-08-18T11:19:18;75151.03;;;-145.37;46.97
13486;BME280;6815;59.336;17.998;2022-08-18T11:21:46;75175.13;;;-145.37;47.22
13486;BME280;6815;59.336;17.998;2022-08-18T11:24:25;75169.09;;;-145.37;47.46
13486;BME280;6815;59.336;17.998;2022-08-18T11:27:03;75161.06;;;-145.37;47.37
13486;BME280;6815;59.336;17.998;2022-08-18T11:29:34;75147.00;;;-145.37;46.98
13486;BME280;6815;59.336;17.998;2022-08-18T11:37:22;75142.97;;;-145.37;46.58
13486;BME280;6815;59.336;17.998;2022-08-18T11:39:50;75155.03;;;-145.37;46.72
13486;BME280;6815;59.336;17.998;2022-08-18T11:42:18;75132.94;;;-145.37;46.61
13486;BME280;6815;59.336;17.998;2022-08-18T11:44:50;75136.97;;;-145.37;46.78
13486;BME280;6815;59.336;17.998;2022-08-18T11:47:20;75142.97;;;-145.37;46.68
13486;BME280;6815;59.336;17.998;2022-08-18T11:50:11;75134.94;;;-145.37;46.98
13486;BME280;6815;59.336;17.998;2022-08-18T11:52:49;75153.03;;;-145.37;47.49
13486;BME280;6815;59.336;17.998;2022-08-18T11:55:28;75159.06;;;-145.37;47.81
13486;BME280;6815;59.336;17.998;2022-08-18T11:57:55;75161.06;;;-145.37;48.08
13486;BME280;6815;59.336;17.998;2022-08-18T12:05:49;75173.13;;;-145.37;48.80
13486;BME280;6815;59.336;17.998;2022-08-18T12:08:35;75175.13;;;-145.37;48.93
13486;BME280;6815;59.336;17.998;2022-08-18T12:11:12;75159.06;;;-145.37;49.11
13486;BME280;6815;59.336;17.998;2022-08-18T12:13:44;75163.09;;;-145.37;49.28
13486;BME280;6815;59.336;17.998;2022-08-18T12:16:30;75167.09;;;-145.37;49.26
13486;BME280;6815;59.336;17.998;2022-08-18T12:18:57;75163.09;;;-145.37;49.52
13486;BME280;6815;59.336;17.998;2022-08-18T12:21:23;75169.09;;;-145.37;49.79
13486;BME280;6815;59.336;17.998;2022-08-18T12:23:48;75163.09;;;-145.37;49.64
13486;BME280;6815;59.336;17.998;2022-08-18T12:26:14;75167.09;;;-145.37;49.96
13486;BME280;6815;59.336;17.998;2022-08-18T12:28:40;75167.09;;;-145.37;49.77
13486;BME280;6815;59.336;17.998;2022-08-18T12:31:07;75169.09;;;-145.37;49.76
13486;BME280;6815;59.336;17.998;2022-08-18T12:33:34;75159.06;;;-145.37;49.68
13486;BME280;6815;59.336;17.998;2022-08-18T12:36:00;75157.06;;;-145.37;49.88
13486;BME280;6815;59.336;17.998;2022-08-18T12:38:26;75153.03;;;-145.37;50.07
13486;BME280;6815;59.336;17.998;2022-08-18T12:40:52;75151.03;;;-145.37;50.19
13486;BME280;6815;59.336;17.998;2022-08-18T12:43:18;75147.00;;;-145.37;50.35
13486;BME280;6815;59.336;17.998;2022-08-18T12:45:43;75142.97;;;-145.37;50.13
13486;BME280;6815;59.336;17.998;2022-08-18T12:48:10;75165.09;;;-145.37;50.61
13486;BME280;6815;59.336;17.998;2022-08-18T12:50:37;75155.03;;;-145.37;50.69
13486;BME280;6815;59.336;17.998;2022-08-18T12:53:03;75151.03;;;-145.37;50.96
13486;BME280;6815;59.336;17.998;2022-08-18T12:55:37;75142.97;;;-145.37;50.89
13486;BME280;6815;59.336;17.998;2022-08-18T12:58:03;75132.94;;;-145.37;51.08
13486;BME280;6815;59.336;17.998;2022-08-18T13:00:30;75118.88;;;-145.37;50.74
13486;BME280;6815;59.336;17.998;2022-08-18T13:02:56;75130.94;;;-145.37;50.93
13486;BME280;6815;59.336;17.998;2022-08-18T13:05:22;75126.91;;;-145.37;50.78
13486;BME280;6815;59.336;17.998;2022-08-18T13:07:48;75140.97;;;-145.37;50.95
13486;BME280;6815;59.336;17.998;2022-08-18T13:10:16;75116.84;;;-145.37;50.91
13486;BME280;6815;59.336;17.998;2022-08-18T13:12:41;75120.88;;;-145.37;50.92
13486;BME280;6815;59.336;17.998;2022-08-18T13:15:07;75088.72;;;-145.37;50.40
13486;BME280;6815;59.336;17.998;2022-08-18T13:17:35;75092.75;;;-145.37;50.32
13486;BME280;6815;59.336;17.998;2022-08-18T13:20:07;75110.84;;;-145.37;50.77
13486;BME280;6815;59.336;17.998;2022-08-18T13:22:34;75126.91;;;-145.37;50.97
13486;BME280;6815;59.336;17.998;2022-08-18T13:25:01;75126.91;;;-145.37;51.07
13486;BME280;6815;59.336;17.998;2022-08-18T13:27:29;75126.91;;;-145.37;51.25
13486;BME280;6815;59.336;17.998;2022-08-18T13:29:55;75116.84;;;-145.37;51.26
13486;BME280;6815;59.336;17.998;2022-08-18T13:32:21;75126.91;;;-145.37;51.31
13486;BME280;6815;59.336;17.998;2022-08-18T13:34:46;75126.91;;;-145.37;51.28
13486;BME280;6815;59.336;17.998;2022-08-18T13:37:13;75138.97;;;-145.37;51.55
13486;BME280;6815;59.336;17.998;2022-08-18T13:39:39;75155.03;;;-145.37;51.98
13486;BME280;6815;59.336;17.998;2022-08-18T13:42:04;75142.97;;;-145.37;51.90
13486;BME280;6815;59.336;17.998;2022-08-18T13:44:30;75128.91;;;-145.37;51.44
13486;BME280;6815;59.336;17.998;2022-08-18T13:46:56;75112.84;;;-145.37;51.39
13486;BME280;6815;59.336;17.998;2022-08-18T13:49:23;75122.88;;;-145.37;51.52
13486;BME280;6815;59.336;17.998;2022-08-18T13:51:50;75132.94;;;-145.37;51.98
13486;BME280;6815;59.336;17.998;2022-08-18T13:54:25;75151.03;;;-145.37;52.25
13486;BME280;6815;59.336;17.998;2022-08-18T13:56:51;75151.03;;;-145.37;52.40
13486;BME280;6815;59.336;17.998;2022-08-18T13:59:18;75149.00;;;-145.37;52.32
13486;BME280;6815;59.336;17.998;2022-08-18T14:01:45;75161.06;;;-145.37;52.97
13486;BME280;6815;59.336;17.998;2022-08-18T14:04:12;75175.13;;;-145.37;53.54
13486;BME280;6815;59.336;17.998;2022-08-18T14:06:38;75193.22;;;-145.37;54.05
13486;BME280;6815;59.336;17.998;2022-08-18T14:09:04;75183.19;;;-145.37;54.11
13486;BME280;6815;59.336;17.998;2022-08-18T14:11:32;75171.13;;;-145.37;54.12
13486;BME280;6815;59.336;17.998;2022-08-18T14:13:58;75171.13;;;-145.37;53.96
13486;BME280;6815;59.336;17.998;2022-08-18T14:16:24;75185.19;;;-145.37;54.07
13486;BME280;6815;59.336;17.998;2022-08-18T14:18:50;75179.16;;;-145.37;53.88
13486;BME280;6815;59.336;17.998;2022-08-18T14:21:45;75177.16;;;-145.37;53.45
13486;BME280;6815;59.336;17.998;2022-08-18T14:24:30;75191.22;;;-145.37;53.59
13486;BME280;6815;59.336;17.998;2022-08-18T14:27:16;75185.19;;;-145.37;53.63
13486;BME280;6815;59.336;17.998;2022-08-18T14:29:42;75193.22;;;-145.37;53.43
13486;BME280;6815;59.336;17.998;2022-08-18T14:32:08;75203.28;;;-145.37;53.78
13486;BME280;6815;59.336;17.998;2022-08-18T14:34:34;75187.19;;;-145.37;53.49
13486;BME280;6815;59.336;17.998;2022-08-18T14:37:00;75203.28;;;-145.37;53.77
13486;BME280;6815;59.336;17.998;2022-08-18T14:39:25;75213.31;;;-145.37;54.19
13486;BME280;6815;59.336;17.998;2022-08-18T14:41:52;75217.34;;;-145.37;54.50
13486;BME280;6815;59.336;17.998;2022-08-18T14:44:18;75205.28;;;-145.37;54.29
13486;BME280;6815;59.336;17.998;2022-08-18T14:46:43;75205.28;;;-145.37;54.41
13486;BME280;6815;59.336;17.998;2022-08-18T14:49:12;75207.28;;;-145.37;54.54
13486;BME280;6815;59.336;17.998;2022-08-18T14:51:38;75207.28;;;-145.37;54.80
13486;BME280;6815;59.336;17.998;2022-08-18T14:54:10;75253.53;;;-145.37;55.44
13486;BME280;6815;59.336;17.998;2022-08-18T14:56:36;75253.53;;;-145.37;55.92
13486;BME280;6815;59.336;17.998;2022-08-18T14:59:01;75259.56;;;-145.37;55.89
13486;BME280;6815;59.336;17.998;2022-08-18T15:01:29;75273.63;;;-145.37;56.29
13486;BME280;6815;59.336;17.998;2022-08-18T15:03:55;75269.59;;;-145.37;56.31
13486;BME280;6815;59.336;17.998;2022-08-18T15:06:21;75267.59;;;-145.37;56.39
13486;BME280;6815;59.336;17.998;2022-08-18T15:08:46;75269.59;;;-145.37;56.44
13486;BME280;6815;59.336;17.998;2022-08-18T15:11:12;75275.63;;;-145.37;56.67